sensor_id;sensor_type;location;lat;lon;timestamp;P1;durP1;ratioP1;P2;durP2;ratioP2
24713;SDS011;12820;51.580;5.010;2023-12-28T00:01:38;6.25;;;4.40;;
24713;SDS011;12820;51.580;5.010;2023-12-28T00:06:40;9.68;;;4.80;;
24713;SDS011;12820;51.580;5.010;2023-12-28T00:11:43;7.88;;;4.72;;
24713;SDS011;12820;51.580;5.010;2023-12-28T00:16:45;7.07;;;4.82;;
24713;SDS011;12820;51.580;5.010;2023-12-28T00:21:48;8.25;;;4.65;;
24713;SDS011;12820;51.580;5.010;2023-12-28T00:26:51;7.93;;;4.32;;
24713;SDS011;12820;51.580;5.010;2023-12-28T00:31:53;7.68;;;4.55;;
24713;SDS011;12820;51.580;5.010;2023-12-28T00:36:55;9.13;;;4.32;;
24713;SDS011;12820;51.580;5.010;2023-12-28T00:41:57;7.63;;;4.57;;
24713;SDS011;12820;51.580;5.010;2023-12-28T00:46:59;8.07;;;4.72;;
24713;SDS011;12820;51.580;5.010;2023-12-28T00:52:02;9.75;;;5.13;;
24713;SDS011;12820;51.580;5.010;2023-12-28T00:57:05;12.50;;;4.90;;
24713;SDS011;12820;51.580;5.010;2023-12-28T01:02:09;9.95;;;4.90;;
24713;SDS011;12820;51.580;5.010;2023-12-28T01:07:11;10.07;;;5.20;;
24713;SDS011;12820;51.580;5.010;2023-12-28T01:12:13;9.95;;;5.18;;
24713;SDS011;12820;51.580;5.010;2023-12-28T01:17:16;11.07;;;5.05;;
24713;SDS011;12820;51.580;5.010;2023-12-28T01:22:18;9.82;;;5.20;;
24713;SDS011;12820;51.580;5.010;2023-12-28T01:27:21;8.35;;;5.07;;
24713;SDS011;12820;51.580;5.010;2023-12-28T01:32:23;11.13;;;5.43;;
24713;SDS011;12820;51.580;5.010;2023-12-28T01:37:27;8.43;;;5.25;;
24713;SDS011;12820;51.580;5.010;2023-12-28T01:42:32;8.23;;;4.53;;
24713;SDS011;12820;51.580;5.010;2023-12-28T01:47:35;10.57;;;5.00;;
24713;SDS011;12820;51.580;5.010;2023-12-28T01:52:38;9.75;;;4.90;;
24713;SDS011;12820;51.580;5.010;2023-12-28T01:57:40;11.02;;;5.10;;
24713;SDS011;12820;51.580;5.010;2023-12-28T02:02:43;9.93;;;5.35;;
24713;SDS011;12820;51.580;5.010;2023-12-28T02:07:46;9.55;;;4.68;;
24713;SDS011;12820;51.580;5.010;2023-12-28T02:12:49;7.90;;;4.85;;
24713;SDS011;12820;51.580;5.010;2023-12-28T02:17:55;8.18;;;4.55;;
24713;SDS011;12820;51.580;5.010;2023-12-28T02:23:03;9.88;;;4.60;;
24713;SDS011;12820;51.580;5.010;2023-12-28T02:28:07;10.35;;;5.22;;
24713;SDS011;12820;51.580;5.010;2023-12-28T02:38:15;12.60;;;4.70;;
24713;SDS011;12820;51.580;5.010;2023-12-28T02:43:19;10.82;;;4.40;;
24713;SDS011;12820;51.580;5.010;2023-12-28T02:48:21;11.05;;;5.03;;
24713;SDS011;12820;51.580;5.010;2023-12-28T02:53:24;10.65;;;4.68;;
24713;SDS011;12820;51.580;5.010;2023-12-28T02:58:26;8.40;;;4.40;;
24713;SDS011;12820;51.580;5.010;2023-12-28T03:03:28;10.68;;;4.35;;
24713;SDS011;12820;51.580;5.010;2023-12-28T03:08:31;8.77;;;3.97;;
24713;SDS011;12820;51.580;5.010;2023-12-28T03:13:33;12.00;;;4.85;;
24713;SDS011;12820;51.580;5.010;2023-12-28T03:18:36;11.00;;;4.43;;
24713;SDS011;12820;51.580;5.010;2023-12-28T03:23:39;13.93;;;4.25;;
24713;SDS011;12820;51.580;5.010;2023-12-28T03:28:41;13.68;;;4.18;;
24713;SDS011;12820;51.580;5.010;2023-12-28T03:33:43;14.65;;;4.30;;
24713;SDS011;12820;51.580;5.010;2023-12-28T03:38:46;11.60;;;4.20;;
24713;SDS011;12820;51.580;5.010;2023-12-28T03:43:48;11.30;;;4.57;;
24713;SDS011;12820;51.580;5.010;2023-12-28T03:48:50;9.63;;;4.20;;
24713;SDS011;12820;51.580;5.010;2023-12-28T03:53:53;11.10;;;4.38;;
24713;SDS011;12820;51.580;5.010;2023-12-28T03:58:55;11.45;;;3.50;;
24713;SDS011;12820;51.580;5.010;2023-12-28T04:03:57;7.80;;;3.38;;
24713;SDS011;12820;51.580;5.010;2023-12-28T04:09:00;12.48;;;4.40;;
24713;SDS011;12820;51.580;5.010;2023-12-28T04:14:02;11.38;;;3.72;;
24713;SDS011;12820;51.580;5.010;2023-12-28T04:19:04;14.88;;;4.38;;
24713;SDS011;12820;51.580;5.010;2023-12-28T04:24:07;9.85;;;3.95;;
24713;SDS011;12820;51.580;5.010;2023-12-28T04:29:10;11.00;;;3.80;;
24713;SDS011;12820;51.580;5.010;2023-12-28T04:34:12;13.93;;;3.45;;
24713;SDS011;12820;51.580;5.010;2023-12-28T04:39:14;16.10;;;4.05;;
24713;SDS011;12820;51.580;5.010;2023-12-28T04:44:17;14.45;;;4.35;;
24713;SDS011;12820;51.580;5.010;2023-12-28T04:49:20;11.65;;;3.90;;
24713;SDS011;12820;51.580;5.010;2023-12-28T04:54:22;13.45;;;3.95;;
24713;SDS011;12820;51.580;5.010;2023-12-28T04:59:25;13.27;;;4.45;;
24713;SDS011;12820;51.580;5.010;2023-12-28T05:04:29;9.10;;;3.17;;
24713;SDS011;12820;51.580;5.010;2023-12-28T05:09:31;14.88;;;4.10;;
24713;SDS011;12820;51.580;5.010;2023-12-28T05:14:36;17.45;;;3.70;;
24713;SDS011;12820;51.580;5.010;2023-12-28T05:19:39;13.98;;;4.05;;
24713;SDS011;12820;51.580;5.010;2023-12-28T05:24:41;12.57;;;3.88;;
24713;SDS011;12820;51.580;5.010;2023-12-28T05:29:43;12.73;;;3.92;;
24713;SDS011;12820;51.580;5.010;2023-12-28T05:34:46;15.20;;;3.95;;
24713;SDS011;12820;51.580;5.010;2023-12-28T05:39:49;15.60;;;3.60;;
24713;SDS011;12820;51.580;5.010;2023-12-28T05:44:51;14.95;;;4.13;;
24713;SDS011;12820;51.580;5.010;2023-12-28T05:49:54;22.10;;;4.43;;
24713;SDS011;12820;51.580;5.010;2023-12-28T05:54:56;17.98;;;4.00;;
24713;SDS011;12820;51.580;5.010;2023-12-28T05:59:58;14.10;;;3.83;;
24713;SDS011;12820;51.580;5.010;2023-12-28T06:05:01;18.98;;;4.10;;
24713;SDS011;12820;51.580;5.010;2023-12-28T06:10:03;18.73;;;4.05;;
24713;SDS011;12820;51.580;5.010;2023-12-28T06:15:06;17.63;;;3.83;;
24713;SDS011;12820;51.580;5.010;2023-12-28T06:20:09;20.10;;;3.47;;
24713;SDS011;12820;51.580;5.010;2023-12-28T06:25:12;13.85;;;3.65;;
24713;SDS011;12820;51.580;5.010;2023-12-28T06:30:14;18.15;;;3.85;;
24713;SDS011;12820;51.580;5.010;2023-12-28T06:35:17;16.27;;;3.72;;
24713;SDS011;12820;51.580;5.010;2023-12-28T06:40:19;19.08;;;3.90;;
24713;SDS011;12820;51.580;5.010;2023-12-28T06:45:21;22.30;;;4.20;;
24713;SDS011;12820;51.580;5.010;2023-12-28T06:50:28;15.80;;;3.92;;
24713;SDS011;12820;51.580;5.010;2023-12-28T06:55:31;15.52;;;4.05;;
24713;SDS011;12820;51.580;5.010;2023-12-28T07:00:33;19.38;;;3.72;;
24713;SDS011;12820;51.580;5.010;2023-12-28T07:05:35;20.15;;;3.90;;
24713;SDS011;12820;51.580;5.010;2023-12-28T07:10:37;18.42;;;3.65;;
24713;SDS011;12820;51.580;5.010;2023-12-28T07:15:40;23.67;;;4.47;;
24713;SDS011;12820;51.580;5.010;2023-12-28T07:20:43;22.77;;;3.80;;
24713;SDS011;12820;51.580;5.010;2023-12-28T07:25:45;20.10;;;4.40;;
24713;SDS011;12820;51.580;5.010;2023-12-28T07:30:48;23.38;;;4.20;;
24713;SDS011;12820;51.580;5.010;2023-12-28T07:35:50;20.05;;;3.97;;
24713;SDS011;12820;51.580;5.010;2023-12-28T07:40:52;20.58;;;5.30;;
24713;SDS011;12820;51.580;5.010;2023-12-28T07:45:55;18.30;;;4.20;;
24713;SDS011;12820;51.580;5.010;2023-12-28T07:50:57;17.70;;;3.50;;
24713;SDS011;12820;51.580;5.010;2023-12-28T07:56:00;20.10;;;3.80;;
24713;SDS011;12820;51.580;5.010;2023-12-28T08:01:09;20.23;;;4.15;;
24713;SDS011;12820;51.580;5.010;2023-12-28T08:06:13;18.73;;;3.85;;
24713;SDS011;12820;51.580;5.010;2023-12-28T08:11:15;23.15;;;4.10;;
24713;SDS011;12820;51.580;5.010;2023-12-28T08:16:18;18.05;;;3.92;;
24713;SDS011;12820;51.580;5.010;2023-12-28T08:21:21;20.58;;;4.05;;
24713;SDS011;12820;51.580;5.010;2023-12-28T08:26:23;17.67;;;4.20;;
24713;SDS011;12820;51.580;5.010;2023-12-28T08:31:25;22.15;;;3.90;;
24713;SDS011;12820;51.580;5.010;2023-12-28T08:36:27;20.77;;;3.80;;
24713;SDS011;12820;51.580;5.010;2023-12-28T08:41:30;17.83;;;4.15;;
24713;SDS011;12820;51.580;5.010;2023-12-28T08:46:32;20.50;;;4.30;;
24713;SDS011;12820;51.580;5.010;2023-12-28T08:51:34;23.30;;;3.88;;
24713;SDS011;12820;51.580;5.010;2023-12-28T08:56:36;22.23;;;3.72;;
24713;SDS011;12820;51.580;5.010;2023-12-28T09:01:39;19.23;;;4.20;;
24713;SDS011;12820;51.580;5.010;2023-12-28T09:06:41;17.42;;;4.05;;
24713;SDS011;12820;51.580;5.010;2023-12-28T09:11:44;17.48;;;3.75;;
24713;SDS011;12820;51.580;5.010;2023-12-28T09:16:46;16.60;;;3.95;;
24713;SDS011;12820;51.580;5.010;2023-12-28T09:21:49;22.10;;;5.07;;
24713;SDS011;12820;51.580;5.010;2023-12-28T09:26:51;20.20;;;4.10;;
24713;SDS011;12820;51.580;5.010;2023-12-28T09:31:55;24.10;;;4.13;;
24713;SDS011;12820;51.580;5.010;2023-12-28T09:36:57;16.98;;;4.10;;
24713;SDS011;12820;51.580;5.010;2023-12-28T09:42:00;18.95;;;3.85;;
24713;SDS011;12820;51.580;5.010;2023-12-28T09:47:08;20.48;;;4.35;;
24713;SDS011;12820;51.580;5.010;2023-12-28T09:52:14;21.70;;;3.97;;
24713;SDS011;12820;51.580;5.010;2023-12-28T09:57:16;24.85;;;4.13;;
24713;SDS011;12820;51.580;5.010;2023-12-28T10:02:19;20.52;;;3.45;;
24713;SDS011;12820;51.580;5.010;2023-12-28T10:07:21;22.95;;;4.13;;
24713;SDS011;12820;51.580;5.010;2023-12-28T10:12:25;23.88;;;4.43;;
24713;SDS011;12820;51.580;5.010;2023-12-28T10:17:29;23.92;;;3.72;;
24713;SDS011;12820;51.580;5.010;2023-12-28T10:22:33;19.10;;;4.13;;
24713;SDS011;12820;51.580;5.010;2023-12-28T10:27:39;21.52;;;4.32;;
24713;SDS011;12820;51.580;5.010;2023-12-28T10:32:45;18.08;;;3.83;;
24713;SDS011;12820;51.580;5.010;2023-12-28T10:37:48;22.48;;;4.13;;
24713;SDS011;12820;51.580;5.010;2023-12-28T10:42:57;20.30;;;3.70;;
24713;SDS011;12820;51.580;5.010;2023-12-28T10:48:12;16.60;;;3.65;;
24713;SDS011;12820;51.580;5.010;2023-12-28T10:58:41;21.17;;;3.75;;
24713;SDS011;12820;51.580;5.010;2023-12-28T11:03:55;24.08;;;3.90;;
24713;SDS011;12820;51.580;5.010;2023-12-28T11:09:01;19.25;;;4.47;;
24713;SDS011;12820;51.580;5.010;2023-12-28T11:14:06;22.10;;;3.60;;
24713;SDS011;12820;51.580;5.010;2023-12-28T11:19:09;16.27;;;3.83;;
24713;SDS011;12820;51.580;5.010;2023-12-28T11:24:13;28.48;;;5.03;;
24713;SDS011;12820;51.580;5.010;2023-12-28T11:29:18;26.02;;;4.50;;
24713;SDS011;12820;51.580;5.010;2023-12-28T11:34:30;26.00;;;4.75;;
24713;SDS011;12820;51.580;5.010;2023-12-28T11:39:36;28.45;;;5.05;;
24713;SDS011;12820;51.580;5.010;2023-12-28T11:44:41;21.92;;;4.40;;
24713;SDS011;12820;51.580;5.010;2023-12-28T11:49:47;18.25;;;3.97;;
24713;SDS011;12820;51.580;5.010;2023-12-28T11:54:53;21.33;;;3.78;;
24713;SDS011;12820;51.580;5.010;2023-12-28T11:59:58;21.13;;;3.97;;
24713;SDS011;12820;51.580;5.010;2023-12-28T12:05:01;26.13;;;4.20;;
24713;SDS011;12820;51.580;5.010;2023-12-28T12:10:04;17.98;;;3.92;;
24713;SDS011;12820;51.580;5.010;2023-12-28T12:15:08;19.83;;;4.18;;
24713;SDS011;12820;51.580;5.010;2023-12-28T12:20:11;19.23;;;4.47;;
24713;SDS011;12820;51.580;5.010;2023-12-28T12:25:13;24.77;;;3.65;;
24713;SDS011;12820;51.580;5.010;2023-12-28T12:30:15;25.75;;;4.40;;
24713;SDS011;12820;51.580;5.010;2023-12-28T12:35:17;18.77;;;3.78;;
24713;SDS011;12820;51.580;5.010;2023-12-28T12:40:23;21.10;;;4.18;;
24713;SDS011;12820;51.580;5.010;2023-12-28T12:45:27;19.45;;;3.70;;
24713;SDS011;12820;51.580;5.010;2023-12-28T12:50:32;23.48;;;4.45;;
24713;SDS011;12820;51.580;5.010;2023-12-28T12:55:35;17.73;;;3.92;;
24713;SDS011;12820;51.580;5.010;2023-12-28T13:00:40;21.45;;;3.88;;
24713;SDS011;12820;51.580;5.010;2023-12-28T13:05:43;26.52;;;3.72;;
24713;SDS011;12820;51.580;5.010;2023-12-28T13:10:46;20.33;;;4.53;;
24713;SDS011;12820;51.580;5.010;2023-12-28T13:15:48;22.33;;;4.55;;
24713;SDS011;12820;51.580;5.010;2023-12-28T13:20:50;22.02;;;4.55;;
24713;SDS011;12820;51.580;5.010;2023-12-28T13:25:53;24.70;;;4.38;;
24713;SDS011;12820;51.580;5.010;2023-12-28T13:30:55;23.77;;;4.30;;
24713;SDS011;12820;51.580;5.010;2023-12-28T13:35:58;26.98;;;4.85;;
24713;SDS011;12820;51.580;5.010;2023-12-28T13:41:00;25.00;;;4.40;;
24713;SDS011;12820;51.580;5.010;2023-12-28T13:46:03;20.00;;;3.90;;
24713;SDS011;12820;51.580;5.010;2023-12-28T13:51:06;19.13;;;3.63;;
24713;SDS011;12820;51.580;5.010;2023-12-28T13:56:08;26.30;;;5.40;;
24713;SDS011;12820;51.580;5.010;2023-12-28T14:01:11;20.75;;;4.22;;
24713;SDS011;12820;51.580;5.010;2023-12-28T14:06:13;20.05;;;3.80;;
24713;SDS011;12820;51.580;5.010;2023-12-28T14:11:15;20.42;;;3.80;;
24713;SDS011;12820;51.580;5.010;2023-12-28T14:16:17;20.48;;;3.30;;
24713;SDS011;12820;51.580;5.010;2023-12-28T14:21:20;19.75;;;3.70;;
24713;SDS011;12820;51.580;5.010;2023-12-28T14:26:22;22.10;;;3.80;;
24713;SDS011;12820;51.580;5.010;2023-12-28T14:31:26;20.58;;;3.70;;
24713;SDS011;12820;51.580;5.010;2023-12-28T14:41:37;26.27;;;4.10;;
24713;SDS011;12820;51.580;5.010;2023-12-28T14:46:44;26.38;;;4.45;;
24713;SDS011;12820;51.580;5.010;2023-12-28T14:51:47;21.48;;;4.30;;
24713;SDS011;12820;51.580;5.010;2023-12-28T14:56:49;21.13;;;4.30;;
24713;SDS011;12820;51.580;5.010;2023-12-28T15:01:56;26.58;;;3.88;;
24713;SDS011;12820;51.580;5.010;2023-12-28T15:06:59;24.50;;;3.95;;
24713;SDS011;12820;51.580;5.010;2023-12-28T15:12:02;14.77;;;4.55;;
24713;SDS011;12820;51.580;5.010;2023-12-28T15:17:05;20.38;;;4.28;;
24713;SDS011;12820;51.580;5.010;2023-12-28T15:22:11;26.13;;;5.88;;
24713;SDS011;12820;51.580;5.010;2023-12-28T15:27:13;21.58;;;4.03;;
24713;SDS011;12820;51.580;5.010;2023-12-28T15:32:15;18.33;;;3.65;;
24713;SDS011;12820;51.580;5.010;2023-12-28T15:37:17;23.65;;;3.88;;
24713;SDS011;12820;51.580;5.010;2023-12-28T15:42:20;21.05;;;3.78;;
24713;SDS011;12820;51.580;5.010;2023-12-28T15:47:22;24.17;;;3.83;;
24713;SDS011;12820;51.580;5.010;2023-12-28T15:52:24;24.85;;;4.28;;
24713;SDS011;12820;51.580;5.010;2023-12-28T15:57:27;21.80;;;3.78;;
24713;SDS011;12820;51.580;5.010;2023-12-28T16:02:29;17.83;;;3.63;;
24713;SDS011;12820;51.580;5.010;2023-12-28T16:07:32;21.33;;;3.75;;
24713;SDS011;12820;51.580;5.010;2023-12-28T16:12:35;22.33;;;4.30;;
24713;SDS011;12820;51.580;5.010;2023-12-28T16:17:38;22.00;;;4.68;;
24713;SDS011;12820;51.580;5.010;2023-12-28T16:22:40;19.92;;;4.03;;
24713;SDS011;12820;51.580;5.010;2023-12-28T16:27:43;20.90;;;3.90;;
24713;SDS011;12820;51.580;5.010;2023-12-28T16:32:45;19.33;;;3.60;;
24713;SDS011;12820;51.580;5.010;2023-12-28T16:37:50;16.90;;;3.20;;
24713;SDS011;12820;51.580;5.010;2023-12-28T16:42:52;18.42;;;3.97;;
24713;SDS011;12820;51.580;5.010;2023-12-28T16:47:54;25.75;;;4.85;;
24713;SDS011;12820;51.580;5.010;2023-12-28T16:52:57;25.60;;;4.32;;
24713;SDS011;12820;51.580;5.010;2023-12-28T16:57:59;23.67;;;3.83;;
24713;SDS011;12820;51.580;5.010;2023-12-28T17:03:03;20.70;;;6.60;;
24713;SDS011;12820;51.580;5.010;2023-12-28T17:08:06;22.23;;;4.22;;
24713;SDS011;12820;51.580;5.010;2023-12-28T17:13:09;21.67;;;4.13;;
24713;SDS011;12820;51.580;5.010;2023-12-28T17:18:13;21.88;;;4.05;;
24713;SDS011;12820;51.580;5.010;2023-12-28T17:23:35;18.15;;;4.10;;
24713;SDS011;12820;51.580;5.010;2023-12-28T17:33:50;21.27;;;3.88;;
24713;SDS011;12820;51.580;5.010;2023-12-28T17:38:53;21.55;;;4.03;;
24713;SDS011;12820;51.580;5.010;2023-12-28T17:43:56;21.65;;;4.78;;
24713;SDS011;12820;51.580;5.010;2023-12-28T17:49:02;21.63;;;4.13;;
24713;SDS011;12820;51.580;5.010;2023-12-28T17:54:08;20.00;;;4.60;;
24713;SDS011;12820;51.580;5.010;2023-12-28T17:59:10;21.88;;;3.90;;
24713;SDS011;12820;51.580;5.010;2023-12-28T18:04:13;15.30;;;4.00;;
24713;SDS011;12820;51.580;5.010;2023-12-28T18:09:15;26.40;;;5.20;;
24713;SDS011;12820;51.580;5.010;2023-12-28T18:14:18;18.80;;;3.83;;
24713;SDS011;12820;51.580;5.010;2023-12-28T18:19:22;16.15;;;3.78;;
24713;SDS011;12820;51.580;5.010;2023-12-28T18:24:25;21.58;;;3.42;;
24713;SDS011;12820;51.580;5.010;2023-12-28T18:29:27;17.65;;;3.33;;
24713;SDS011;12820;51.580;5.010;2023-12-28T18:34:30;16.48;;;3.90;;
24713;SDS011;12820;51.580;5.010;2023-12-28T18:39:32;13.70;;;4.03;;
24713;SDS011;12820;51.580;5.010;2023-12-28T18:44:39;18.33;;;4.40;;
24713;SDS011;12820;51.580;5.010;2023-12-28T18:49:44;15.30;;;4.13;;
24713;SDS011;12820;51.580;5.010;2023-12-28T18:54:47;19.38;;;4.10;;
24713;SDS011;12820;51.580;5.010;2023-12-28T18:59:49;20.42;;;3.95;;
24713;SDS011;12820;51.580;5.010;2023-12-28T19:04:52;16.15;;;3.60;;
24713;SDS011;12820;51.580;5.010;2023-12-28T19:09:55;20.05;;;3.83;;
24713;SDS011;12820;51.580;5.010;2023-12-28T19:14:57;13.27;;;3.58;;
24713;SDS011;12820;51.580;5.010;2023-12-28T19:20:00;19.05;;;3.58;;
24713;SDS011;12820;51.580;5.010;2023-12-28T19:25:02;20.00;;;3.85;;
24713;SDS011;12820;51.580;5.010;2023-12-28T19:30:05;19.63;;;4.35;;
24713;SDS011;12820;51.580;5.010;2023-12-28T19:35:08;16.50;;;4.32;;
24713;SDS011;12820;51.580;5.010;2023-12-28T19:40:13;10.25;;;3.15;;
24713;SDS011;12820;51.580;5.010;2023-12-28T19:45:17;16.40;;;3.55;;
24713;SDS011;12820;51.580;5.010;2023-12-28T19:50:20;16.27;;;3.72;;
24713;SDS011;12820;51.580;5.010;2023-12-28T19:55:22;16.58;;;3.63;;
24713;SDS011;12820;51.580;5.010;2023-12-28T20:00:25;16.50;;;4.00;;
24713;SDS011;12820;51.580;5.010;2023-12-28T20:05:27;18.75;;;3.78;;
24713;SDS011;12820;51.580;5.010;2023-12-28T20:10:29;18.13;;;4.45;;
24713;SDS011;12820;51.580;5.010;2023-12-28T20:15:32;16.13;;;3.88;;
24713;SDS011;12820;51.580;5.010;2023-12-28T20:20:34;18.48;;;4.25;;
24713;SDS011;12820;51.580;5.010;2023-12-28T20:25:37;22.73;;;4.15;;
24713;SDS011;12820;51.580;5.010;2023-12-28T20:30:39;17.48;;;3.67;;
24713;SDS011;12820;51.580;5.010;2023-12-28T20:35:41;17.65;;;4.00;;
24713;SDS011;12820;51.580;5.010;2023-12-28T20:40:44;16.95;;;3.83;;
24713;SDS011;12820;51.580;5.010;2023-12-28T20:45:46;18.90;;;4.35;;
24713;SDS011;12820;51.580;5.010;2023-12-28T20:50:48;15.27;;;3.75;;
24713;SDS011;12820;51.580;5.010;2023-12-28T20:55:50;20.58;;;4.20;;
24713;SDS011;12820;51.580;5.010;2023-12-28T21:00:53;19.35;;;3.70;;
24713;SDS011;12820;51.580;5.010;2023-12-28T21:05:55;18.48;;;4.13;;
24713;SDS011;12820;51.580;5.010;2023-12-28T21:10:57;12.55;;;3.72;;
24713;SDS011;12820;51.580;5.010;2023-12-28T21:16:00;13.23;;;3.50;;
24713;SDS011;12820;51.580;5.010;2023-12-28T21:21:03;25.30;;;4.03;;
24713;SDS011;12820;51.580;5.010;2023-12-28T21:26:13;19.13;;;3.83;;
24713;SDS011;12820;51.580;5.010;2023-12-28T21:31:15;15.77;;;3.88;;
24713;SDS011;12820;51.580;5.010;2023-12-28T21:36:18;15.57;;;3.50;;
24713;SDS011;12820;51.580;5.010;2023-12-28T21:41:20;20.17;;;4.13;;
24713;SDS011;12820;51.580;5.010;2023-12-28T21:46:23;20.27;;;4.55;;
24713;SDS011;12820;51.580;5.010;2023-12-28T21:51:27;12.82;;;3.42;;
24713;SDS011;12820;51.580;5.010;2023-12-28T21:56:29;16.10;;;3.50;;
24713;SDS011;12820;51.580;5.010;2023-12-28T22:01:31;12.98;;;3.30;;
24713;SDS011;12820;51.580;5.010;2023-12-28T22:06:34;16.20;;;3.50;;
24713;SDS011;12820;51.580;5.010;2023-12-28T22:11:36;20.35;;;3.65;;
24713;SDS011;12820;51.580;5.010;2023-12-28T22:16:39;17.98;;;3.80;;
24713;SDS011;12820;51.580;5.010;2023-12-28T22:21:41;17.38;;;3.45;;
24713;SDS011;12820;51.580;5.010;2023-12-28T22:26:43;17.10;;;3.40;;
24713;SDS011;12820;51.580;5.010;2023-12-28T22:31:47;13.60;;;3.65;;
24713;SDS011;12820;51.580;5.010;2023-12-28T22:36:50;17.67;;;3.58;;
24713;SDS011;12820;51.580;5.010;2023-12-28T22:41:53;13.77;;;3.30;;
24713;SDS011;12820;51.580;5.010;2023-12-28T22:46:55;16.92;;;3.38;;
24713;SDS011;12820;51.580;5.010;2023-12-28T22:51:58;19.55;;;3.40;;
24713;SDS011;12820;51.580;5.010;2023-12-28T22:57:00;20.10;;;3.53;;
24713;SDS011;12820;51.580;5.010;2023-12-28T23:02:02;14.13;;;2.97;;
24713;SDS011;12820;51.580;5.010;2023-12-28T23:07:05;15.95;;;3.33;;
24713;SDS011;12820;51.580;5.010;2023-12-28T23:12:08;15.82;;;3.13;;
24713;SDS011;12820;51.580;5.010;2023-12-28T23:17:12;11.77;;;3.65;;
24713;SDS011;12820;51.580;5.010;2023-12-28T23:22:14;16.65;;;3.55;;
24713;SDS011;12820;51.580;5.010;2023-12-28T23:27:16;13.52;;;2.88;;
24713;SDS011;12820;51.580;5.010;2023-12-28T23:32:18;18.50;;;3.47;;
24713;SDS011;12820;51.580;5.010;2023-12-28T23:37:20;11.88;;;3.65;;
24713;SDS011;12820;51.580;5.010;2023-12-28T23:42:22;12.55;;;3.08;;
24713;SDS011;12820;51.580;5.010;2023-12-28T23:47:25;16.38;;;3.10;;
24713;SDS011;12820;51.580;5.010;2023-12-28T23:52:27;15.60;;;2.90;;
24713;SDS011;12820;51.580;5.010;2023-12-28T23:57:30;12.43;;;3.22;;
